Terminal Aerodrome Forecast
Issued by NWS Jackson, MS

Home | Current Version | Previous Version | Text Only | Print | Product List | Glossary On
Versions: 1 2 3 4 5 6 7 8 9 10 11 12 13 14 15 16 17
000
FTUS44 KJAN 290500
TAFJAN
TAF
KJAN 290529Z 2906/3006 35005KT P6SM -DZ OVC005
     FM290800 35004KT 4SM -DZ OVC003
     FM291700 35005KT P6SM OVC007
     FM292000 35005KT P6SM OVC013=

USA.gov is the U.S. government's official web portal to all federal, state and local government web resources and services.